sensor_id;sensor_type;location;lat;lon;timestamp;P1;P2;P0
84887;PMS7003;75150;54.494;18.518;2024-03-08T00:01:15;27.25;23.00;17.50
84887;PMS7003;75150;54.494;18.518;2024-03-08T00:03:21;23.75;22.25;15.25
84887;PMS7003;75150;54.494;18.518;2024-03-08T00:05:23;22.50;21.00;15.25
84887;PMS7003;75150;54.494;18.518;2024-03-08T00:07:24;20.00;18.25;13.00
84887;PMS7003;75150;54.494;18.518;2024-03-08T00:09:25;19.75;15.50;12.00
84887;PMS7003;75150;54.494;18.518;2024-03-08T00:11:27;28.00;24.50;17.25
84887;PMS7003;75150;54.494;18.518;2024-03-08T00:13:28;22.00;17.25;13.00
84887;PMS7003;75150;54.494;18.518;2024-03-08T00:15:30;20.25;18.00;14.00
84887;PMS7003;75150;54.494;18.518;2024-03-08T00:17:31;61.00;49.75;33.00
84887;PMS7003;75150;54.494;18.518;2024-03-08T00:19:34;23.50;20.75;14.00
84887;PMS7003;75150;54.494;18.518;2024-03-08T00:21:35;20.50;12.75;9.75
84887;PMS7003;75150;54.494;18.518;2024-03-08T00:23:36;55.25;46.00;30.25
84887;PMS7003;75150;54.494;18.518;2024-03-08T00:25:37;24.50;17.00;12.00
84887;PMS7003;75150;54.494;18.518;2024-03-08T00:27:39;20.75;16.50;13.50
84887;PMS7003;75150;54.494;18.518;2024-03-08T00:29:41;20.25;19.00;13.00
84887;PMS7003;75150;54.494;18.518;2024-03-08T00:31:42;24.00;20.75;13.00
84887;PMS7003;75150;54.494;18.518;2024-03-08T00:33:43;32.50;27.25;17.75
84887;PMS7003;75150;54.494;18.518;2024-03-08T00:35:46;38.00;31.00;22.25
84887;PMS7003;75150;54.494;18.518;2024-03-08T00:37:47;28.00;22.50;16.50
84887;PMS7003;75150;54.494;18.518;2024-03-08T00:39:49;30.75;21.25;15.00
84887;PMS7003;75150;54.494;18.518;2024-03-08T00:41:50;36.00;23.75;17.00
84887;PMS7003;75150;54.494;18.518;2024-03-08T00:43:52;27.00;24.25;17.00
84887;PMS7003;75150;54.494;18.518;2024-03-08T00:45:53;28.25;23.00;15.00
84887;PMS7003;75150;54.494;18.518;2024-03-08T00:47:55;27.00;18.50;13.00
84887;PMS7003;75150;54.494;18.518;2024-03-08T00:49:56;21.25;19.00;12.75
84887;PMS7003;75150;54.494;18.518;2024-03-08T00:51:59;23.00;18.00;12.50
84887;PMS7003;75150;54.494;18.518;2024-03-08T00:54:00;26.00;18.00;12.25
84887;PMS7003;75150;54.494;18.518;2024-03-08T00:56:01;20.25;15.50;11.75
84887;PMS7003;75150;54.494;18.518;2024-03-08T00:58:03;24.25;18.50;12.00
84887;PMS7003;75150;54.494;18.518;2024-03-08T01:00:05;28.75;20.50;14.50
84887;PMS7003;75150;54.494;18.518;2024-03-08T01:02:07;18.75;18.25;13.00
84887;PMS7003;75150;54.494;18.518;2024-03-08T01:04:09;16.25;15.00;9.75
84887;PMS7003;75150;54.494;18.518;2024-03-08T01:06:10;19.50;18.00;12.00
84887;PMS7003;75150;54.494;18.518;2024-03-08T01:08:13;18.00;16.00;10.00
84887;PMS7003;75150;54.494;18.518;2024-03-08T01:10:14;22.00;14.00;9.50
84887;PMS7003;75150;54.494;18.518;2024-03-08T01:12:16;14.50;14.50;12.00
84887;PMS7003;75150;54.494;18.518;2024-03-08T01:14:17;20.25;15.75;11.00
84887;PMS7003;75150;54.494;18.518;2024-03-08T01:16:19;21.75;11.25;9.25
84887;PMS7003;75150;54.494;18.518;2024-03-08T01:18:20;18.75;14.75;10.00
84887;PMS7003;75150;54.494;18.518;2024-03-08T01:20:21;17.50;13.50;8.50
84887;PMS7003;75150;54.494;18.518;2024-03-08T01:22:22;15.50;15.50;12.00
84887;PMS7003;75150;54.494;18.518;2024-03-08T01:24:25;19.50;15.50;10.00
84887;PMS7003;75150;54.494;18.518;2024-03-08T01:26:26;18.00;16.00;13.00
84887;PMS7003;75150;54.494;18.518;2024-03-08T01:28:28;22.00;15.25;10.00
84887;PMS7003;75150;54.494;18.518;2024-03-08T01:30:29;15.50;15.25;12.50
84887;PMS7003;75150;54.494;18.518;2024-03-08T01:32:31;16.00;13.50;9.25
84887;PMS7003;75150;54.494;18.518;2024-03-08T01:34:32;21.75;18.00;12.00
84887;PMS7003;75150;54.494;18.518;2024-03-08T01:36:33;20.00;12.00;9.00
84887;PMS7003;75150;54.494;18.518;2024-03-08T01:38:34;11.00;11.00;8.00
84887;PMS7003;75150;54.494;18.518;2024-03-08T01:40:37;12.75;12.25;10.00
84887;PMS7003;75150;54.494;18.518;2024-03-08T01:42:39;15.25;10.25;6.25
84887;PMS7003;75150;54.494;18.518;2024-03-08T01:44:41;25.75;13.75;9.50
84887;PMS7003;75150;54.494;18.518;2024-03-08T01:46:42;18.75;14.50;10.00
84887;PMS7003;75150;54.494;18.518;2024-03-08T01:48:44;14.50;11.75;8.50
84887;PMS7003;75150;54.494;18.518;2024-03-08T01:50:45;21.00;15.00;11.00
84887;PMS7003;75150;54.494;18.518;2024-03-08T01:52:47;21.50;12.00;9.25
84887;PMS7003;75150;54.494;18.518;2024-03-08T01:54:48;12.00;12.00;9.00
84887;PMS7003;75150;54.494;18.518;2024-03-08T01:56:51;13.50;12.00;9.25
84887;PMS7003;75150;54.494;18.518;2024-03-08T01:58:53;14.50;14.50;10.00
84887;PMS7003;75150;54.494;18.518;2024-03-08T02:00:56;17.00;15.50;10.50
84887;PMS7003;75150;54.494;18.518;2024-03-08T02:02:57;21.50;15.50;11.50
84887;PMS7003;75150;54.494;18.518;2024-03-08T02:05:00;19.50;14.00;11.00
84887;PMS7003;75150;54.494;18.518;2024-03-08T02:07:01;18.00;14.25;12.50
84887;PMS7003;75150;54.494;18.518;2024-03-08T02:09:03;17.50;14.00;11.00
84887;PMS7003;75150;54.494;18.518;2024-03-08T02:11:04;23.00;15.25;10.50
84887;PMS7003;75150;54.494;18.518;2024-03-08T02:13:07;18.50;14.50;9.25
84887;PMS7003;75150;54.494;18.518;2024-03-08T02:15:09;15.75;13.00;9.75
84887;PMS7003;75150;54.494;18.518;2024-03-08T02:17:10;13.00;13.00;9.00
84887;PMS7003;75150;54.494;18.518;2024-03-08T02:19:12;14.00;14.00;9.00
84887;PMS7003;75150;54.494;18.518;2024-03-08T02:21:15;14.50;14.00;9.25
84887;PMS7003;75150;54.494;18.518;2024-03-08T02:23:18;15.50;10.00;7.00
84887;PMS7003;75150;54.494;18.518;2024-03-08T02:25:20;16.50;12.50;8.50
84887;PMS7003;75150;54.494;18.518;2024-03-08T02:27:23;16.00;11.50;9.00
84887;PMS7003;75150;54.494;18.518;2024-03-08T02:29:24;16.75;15.00;8.00
84887;PMS7003;75150;54.494;18.518;2024-03-08T02:31:26;15.25;13.00;9.00
84887;PMS7003;75150;54.494;18.518;2024-03-08T02:33:27;19.00;15.25;11.50
84887;PMS7003;75150;54.494;18.518;2024-03-08T02:35:29;13.00;10.50;9.25
84887;PMS7003;75150;54.494;18.518;2024-03-08T02:37:32;19.00;16.50;11.50
84887;PMS7003;75150;54.494;18.518;2024-03-08T02:39:33;19.50;13.00;10.00
84887;PMS7003;75150;54.494;18.518;2024-03-08T02:41:34;19.00;14.25;10.50
84887;PMS7003;75150;54.494;18.518;2024-03-08T02:43:35;20.75;12.75;9.00
84887;PMS7003;75150;54.494;18.518;2024-03-08T02:45:37;19.00;16.00;11.50
84887;PMS7003;75150;54.494;18.518;2024-03-08T02:47:39;15.25;13.50;9.25
84887;PMS7003;75150;54.494;18.518;2024-03-08T02:49:40;19.50;15.25;12.00
84887;PMS7003;75150;54.494;18.518;2024-03-08T02:51:41;20.75;13.00;10.50
84887;PMS7003;75150;54.494;18.518;2024-03-08T02:53:44;19.50;16.00;12.00
84887;PMS7003;75150;54.494;18.518;2024-03-08T02:55:45;12.25;9.25;6.50
84887;PMS7003;75150;54.494;18.518;2024-03-08T02:57:47;12.00;12.00;8.50
84887;PMS7003;75150;54.494;18.518;2024-03-08T02:59:48;14.50;13.00;9.25
84887;PMS7003;75150;54.494;18.518;2024-03-08T03:01:50;15.25;9.25;7.00
84887;PMS7003;75150;54.494;18.518;2024-03-08T03:03:51;12.50;10.50;7.00
84887;PMS7003;75150;54.494;18.518;2024-03-08T03:05:52;17.00;13.25;9.50
84887;PMS7003;75150;54.494;18.518;2024-03-08T03:07:53;16.25;11.75;8.50
84887;PMS7003;75150;54.494;18.518;2024-03-08T03:09:56;12.50;9.50;7.00
84887;PMS7003;75150;54.494;18.518;2024-03-08T03:11:57;21.75;15.00;9.50
84887;PMS7003;75150;54.494;18.518;2024-03-08T03:13:59;18.00;14.50;9.50
84887;PMS7003;75150;54.494;18.518;2024-03-08T03:16:00;15.50;11.50;9.25
84887;PMS7003;75150;54.494;18.518;2024-03-08T03:18:02;12.75;9.50;6.25
84887;PMS7003;75150;54.494;18.518;2024-03-08T03:20:04;16.75;14.00;10.00
84887;PMS7003;75150;54.494;18.518;2024-03-08T03:22:06;13.00;13.00;10.00
84887;PMS7003;75150;54.494;18.518;2024-03-08T03:24:08;15.50;15.50;9.25
84887;PMS7003;75150;54.494;18.518;2024-03-08T03:26:10;13.00;12.00;9.00
84887;PMS7003;75150;54.494;18.518;2024-03-08T03:28:12;12.50;9.00;8.00
84887;PMS7003;75150;54.494;18.518;2024-03-08T03:30:13;14.50;9.25;7.50
84887;PMS7003;75150;54.494;18.518;2024-03-08T03:32:15;16.75;11.50;8.75
84887;PMS7003;75150;54.494;18.518;2024-03-08T03:34:16;12.75;8.50;6.00
84887;PMS7003;75150;54.494;18.518;2024-03-08T03:36:18;10.25;9.00;6.00
84887;PMS7003;75150;54.494;18.518;2024-03-08T03:38:19;15.00;10.00;8.50
84887;PMS7003;75150;54.494;18.518;2024-03-08T03:40:20;10.75;8.50;7.00
84887;PMS7003;75150;54.494;18.518;2024-03-08T03:42:23;23.00;20.25;12.25
84887;PMS7003;75150;54.494;18.518;2024-03-08T03:44:24;24.00;15.50;10.50
84887;PMS7003;75150;54.494;18.518;2024-03-08T03:46:26;20.25;16.00;10.25
84887;PMS7003;75150;54.494;18.518;2024-03-08T03:48:27;16.25;16.00;12.25
84887;PMS7003;75150;54.494;18.518;2024-03-08T03:50:28;22.25;17.75;9.25
84887;PMS7003;75150;54.494;18.518;2024-03-08T03:52:30;20.75;14.50;12.00
84887;PMS7003;75150;54.494;18.518;2024-03-08T03:54:31;17.50;15.50;12.00
84887;PMS7003;75150;54.494;18.518;2024-03-08T03:56:33;14.00;13.00;10.00
84887;PMS7003;75150;54.494;18.518;2024-03-08T03:58:35;12.25;12.00;7.50
84887;PMS7003;75150;54.494;18.518;2024-03-08T04:00:37;13.00;12.00;9.00
84887;PMS7003;75150;54.494;18.518;2024-03-08T04:02:38;10.00;9.00;9.00
84887;PMS7003;75150;54.494;18.518;2024-03-08T04:04:40;17.00;12.75;9.75
84887;PMS7003;75150;54.494;18.518;2024-03-08T04:06:41;19.50;12.25;9.25
84887;PMS7003;75150;54.494;18.518;2024-03-08T04:08:43;17.00;10.00;7.50
84887;PMS7003;75150;54.494;18.518;2024-03-08T04:10:44;14.50;12.00;9.00
84887;PMS7003;75150;54.494;18.518;2024-03-08T04:12:45;15.50;11.50;8.00
84887;PMS7003;75150;54.494;18.518;2024-03-08T04:14:48;11.50;9.25;7.00
84887;PMS7003;75150;54.494;18.518;2024-03-08T04:16:49;15.00;12.00;9.25
84887;PMS7003;75150;54.494;18.518;2024-03-08T04:18:51;18.00;16.00;10.00
84887;PMS7003;75150;54.494;18.518;2024-03-08T04:20:52;12.25;7.00;4.00
84887;PMS7003;75150;54.494;18.518;2024-03-08T04:22:54;13.00;13.00;9.00
84887;PMS7003;75150;54.494;18.518;2024-03-08T04:24:55;15.00;11.00;9.00
84887;PMS7003;75150;54.494;18.518;2024-03-08T04:26:56;14.50;13.00;9.25
84887;PMS7003;75150;54.494;18.518;2024-03-08T04:28:58;13.00;9.75;6.00
84887;PMS7003;75150;54.494;18.518;2024-03-08T04:31:01;11.50;11.50;9.00
84887;PMS7003;75150;54.494;18.518;2024-03-08T04:33:02;14.75;11.50;7.50
84887;PMS7003;75150;54.494;18.518;2024-03-08T04:35:04;11.50;9.75;7.50
84887;PMS7003;75150;54.494;18.518;2024-03-08T04:37:06;15.00;10.50;9.25
84887;PMS7003;75150;54.494;18.518;2024-03-08T04:39:07;7.50;6.00;3.00
84887;PMS7003;75150;54.494;18.518;2024-03-08T04:41:08;11.75;9.75;6.75
84887;PMS7003;75150;54.494;18.518;2024-03-08T04:43:10;15.00;10.00;7.00
84887;PMS7003;75150;54.494;18.518;2024-03-08T04:45:11;12.75;7.50;6.00
84887;PMS7003;75150;54.494;18.518;2024-03-08T04:47:14;22.00;11.00;8.50
84887;PMS7003;75150;54.494;18.518;2024-03-08T04:49:15;8.50;8.50;3.25
84887;PMS7003;75150;54.494;18.518;2024-03-08T04:51:17;13.50;13.25;9.00
84887;PMS7003;75150;54.494;18.518;2024-03-08T04:53:18;12.25;12.00;9.00
84887;PMS7003;75150;54.494;18.518;2024-03-08T04:55:20;13.00;12.00;9.00
84887;PMS7003;75150;54.494;18.518;2024-03-08T04:57:21;18.75;14.50;9.25
84887;PMS7003;75150;54.494;18.518;2024-03-08T04:59:22;12.00;12.00;7.00
84887;PMS7003;75150;54.494;18.518;2024-03-08T05:01:24;11.75;11.75;10.00
84887;PMS7003;75150;54.494;18.518;2024-03-08T05:03:27;13.50;10.00;7.00
84887;PMS7003;75150;54.494;18.518;2024-03-08T05:05:28;9.00;9.00;7.00
84887;PMS7003;75150;54.494;18.518;2024-03-08T05:07:29;10.50;9.00;6.25
84887;PMS7003;75150;54.494;18.518;2024-03-08T05:09:31;9.50;9.50;6.25
84887;PMS7003;75150;54.494;18.518;2024-03-08T05:11:32;16.00;10.00;9.00
84887;PMS7003;75150;54.494;18.518;2024-03-08T05:13:33;6.25;6.00;4.00
84887;PMS7003;75150;54.494;18.518;2024-03-08T05:15:35;6.25;6.00;4.00
84887;PMS7003;75150;54.494;18.518;2024-03-08T05:17:36;12.75;10.00;9.00
84887;PMS7003;75150;54.494;18.518;2024-03-08T05:19:39;11.00;9.25;7.00
84887;PMS7003;75150;54.494;18.518;2024-03-08T05:21:40;11.00;7.00;6.00
84887;PMS7003;75150;54.494;18.518;2024-03-08T05:23:42;7.00;7.00;7.00
84887;PMS7003;75150;54.494;18.518;2024-03-08T05:25:43;10.00;7.00;6.00
84887;PMS7003;75150;54.494;18.518;2024-03-08T05:27:44;6.00;5.50;4.00
84887;PMS7003;75150;54.494;18.518;2024-03-08T05:29:45;13.00;7.00;6.75
84887;PMS7003;75150;54.494;18.518;2024-03-08T05:31:47;21.75;13.00;9.00
84887;PMS7003;75150;54.494;18.518;2024-03-08T05:33:49;19.00;12.75;9.50
84887;PMS7003;75150;54.494;18.518;2024-03-08T05:35:53;15.25;12.75;8.50
84887;PMS7003;75150;54.494;18.518;2024-03-08T05:37:54;9.75;4.00;3.00
84887;PMS7003;75150;54.494;18.518;2024-03-08T05:39:55;7.50;7.50;6.25
84887;PMS7003;75150;54.494;18.518;2024-03-08T05:41:56;16.25;12.00;9.50
84887;PMS7003;75150;54.494;18.518;2024-03-08T05:43:58;6.25;6.00;5.00
84887;PMS7003;75150;54.494;18.518;2024-03-08T05:45:59;10.00;10.00;7.00
84887;PMS7003;75150;54.494;18.518;2024-03-08T05:48:01;11.00;6.50;5.50
84887;PMS7003;75150;54.494;18.518;2024-03-08T05:50:02;7.00;7.00;6.25
84887;PMS7003;75150;54.494;18.518;2024-03-08T05:52:05;9.25;6.75;5.50
84887;PMS7003;75150;54.494;18.518;2024-03-08T05:54:07;12.75;10.25;7.00
84887;PMS7003;75150;54.494;18.518;2024-03-08T05:56:09;7.50;3.75;3.00
84887;PMS7003;75150;54.494;18.518;2024-03-08T05:58:10;9.50;5.00;3.00
84887;PMS7003;75150;54.494;18.518;2024-03-08T06:00:12;4.00;4.00;3.75
84887;PMS7003;75150;54.494;18.518;2024-03-08T06:02:14;8.00;4.00;3.50
84887;PMS7003;75150;54.494;18.518;2024-03-08T06:04:15;9.00;5.75;3.50
84887;PMS7003;75150;54.494;18.518;2024-03-08T06:06:16;6.50;4.00;3.75
84887;PMS7003;75150;54.494;18.518;2024-03-08T06:08:19;5.00;5.00;3.50
84887;PMS7003;75150;54.494;18.518;2024-03-08T06:10:20;5.00;4.00;3.00
84887;PMS7003;75150;54.494;18.518;2024-03-08T06:12:22;6.00;3.25;2.50
84887;PMS7003;75150;54.494;18.518;2024-03-08T06:14:23;6.25;4.00;3.00
84887;PMS7003;75150;54.494;18.518;2024-03-08T06:16:25;1.50;1.50;1.50
84887;PMS7003;75150;54.494;18.518;2024-03-08T06:18:26;4.00;4.00;3.75
84887;PMS7003;75150;54.494;18.518;2024-03-08T06:20:28;5.00;3.75;3.75
84887;PMS7003;75150;54.494;18.518;2024-03-08T06:22:29;3.75;3.00;3.00
84887;PMS7003;75150;54.494;18.518;2024-03-08T06:24:32;5.50;3.50;2.50
84887;PMS7003;75150;54.494;18.518;2024-03-08T06:26:33;4.00;4.00;3.50
84887;PMS7003;75150;54.494;18.518;2024-03-08T06:28:34;9.75;6.25;3.25
84887;PMS7003;75150;54.494;18.518;2024-03-08T06:30:36;6.75;6.00;3.00
84887;PMS7003;75150;54.494;18.518;2024-03-08T06:32:37;5.50;4.00;3.25
84887;PMS7003;75150;54.494;18.518;2024-03-08T06:34:38;4.50;3.50;2.50
84887;PMS7003;75150;54.494;18.518;2024-03-08T06:36:40;7.00;5.50;4.00
84887;PMS7003;75150;54.494;18.518;2024-03-08T06:38:41;5.50;3.50;3.25
84887;PMS7003;75150;54.494;18.518;2024-03-08T06:40:44;1.50;1.50;1.00
84887;PMS7003;75150;54.494;18.518;2024-03-08T06:42:45;1.00;1.00;0.00
84887;PMS7003;75150;54.494;18.518;2024-03-08T06:44:47;3.25;3.25;3.00
84887;PMS7003;75150;54.494;18.518;2024-03-08T06:46:48;4.00;3.25;2.50
84887;PMS7003;75150;54.494;18.518;2024-03-08T06:48:50;6.75;3.75;3.50
84887;PMS7003;75150;54.494;18.518;2024-03-08T06:50:51;5.50;3.25;3.00
84887;PMS7003;75150;54.494;18.518;2024-03-08T06:52:53;4.00;3.50;3.25
84887;PMS7003;75150;54.494;18.518;2024-03-08T06:54:54;3.75;3.75;3.00
84887;PMS7003;75150;54.494;18.518;2024-03-08T06:56:57;5.00;3.50;3.25
84887;PMS7003;75150;54.494;18.518;2024-03-08T06:58:58;3.75;3.75;3.00
84887;PMS7003;75150;54.494;18.518;2024-03-08T07:00:59;3.00;3.00;3.00
84887;PMS7003;75150;54.494;18.518;2024-03-08T07:03:01;2.50;2.50;2.00
84887;PMS7003;75150;54.494;18.518;2024-03-08T07:05:02;6.75;3.75;3.00
84887;PMS7003;75150;54.494;18.518;2024-03-08T07:07:04;2.75;2.50;1.00
84887;PMS7003;75150;54.494;18.518;2024-03-08T07:09:06;6.00;4.00;3.00
84887;PMS7003;75150;54.494;18.518;2024-03-08T07:11:07;1.50;1.50;1.50
84887;PMS7003;75150;54.494;18.518;2024-03-08T07:13:10;4.75;3.75;3.00
84887;PMS7003;75150;54.494;18.518;2024-03-08T07:15:11;3.75;3.75;3.00
84887;PMS7003;75150;54.494;18.518;2024-03-08T07:17:13;5.50;3.00;3.00
84887;PMS7003;75150;54.494;18.518;2024-03-08T07:19:14;3.00;3.00;2.00
84887;PMS7003;75150;54.494;18.518;2024-03-08T07:21:16;3.75;3.75;3.00
84887;PMS7003;75150;54.494;18.518;2024-03-08T07:23:17;4.00;3.75;3.00
84887;PMS7003;75150;54.494;18.518;2024-03-08T07:25:18;8.75;3.00;3.00
84887;PMS7003;75150;54.494;18.518;2024-03-08T07:27:20;5.50;3.75;3.00
84887;PMS7003;75150;54.494;18.518;2024-03-08T07:29:22;5.25;5.25;4.00
84887;PMS7003;75150;54.494;18.518;2024-03-08T07:31:24;4.50;4.50;3.00
84887;PMS7003;75150;54.494;18.518;2024-03-08T07:33:25;6.50;6.50;3.50
84887;PMS7003;75150;54.494;18.518;2024-03-08T07:35:27;3.50;3.50;2.50
84887;PMS7003;75150;54.494;18.518;2024-03-08T07:37:28;5.75;5.00;4.75
84887;PMS7003;75150;54.494;18.518;2024-03-08T07:39:29;5.00;5.00;4.50
84887;PMS7003;75150;54.494;18.518;2024-03-08T07:41:31;2.25;1.75;1.50
84887;PMS7003;75150;54.494;18.518;2024-03-08T07:43:32;6.00;6.00;4.00
84887;PMS7003;75150;54.494;18.518;2024-03-08T07:45:35;3.50;2.00;2.00
84887;PMS7003;75150;54.494;18.518;2024-03-08T07:47:36;4.25;2.00;2.00
84887;PMS7003;75150;54.494;18.518;2024-03-08T07:49:37;4.75;2.50;2.00
84887;PMS7003;75150;54.494;18.518;2024-03-08T07:51:39;5.00;3.50;2.00
84887;PMS7003;75150;54.494;18.518;2024-03-08T07:53:40;4.00;4.00;2.75
84887;PMS7003;75150;54.494;18.518;2024-03-08T07:55:41;2.00;2.00;2.00
84887;PMS7003;75150;54.494;18.518;2024-03-08T07:57:43;5.75;3.00;2.00
84887;PMS7003;75150;54.494;18.518;2024-03-08T07:59:44;3.00;3.00;2.67
84887;PMS7003;75150;54.494;18.518;2024-03-08T08:01:47;6.67;4.00;3.00
84887;PMS7003;75150;54.494;18.518;2024-03-08T08:03:48;2.67;2.67;2.67
84887;PMS7003;75150;54.494;18.518;2024-03-08T08:05:49;2.33;2.33;2.00
84887;PMS7003;75150;54.494;18.518;2024-03-08T08:07:51;4.00;3.00;2.00
84887;PMS7003;75150;54.494;18.518;2024-03-08T08:09:52;4.67;2.67;2.00
84887;PMS7003;75150;54.494;18.518;2024-03-08T08:11:54;2.00;2.00;2.00
84887;PMS7003;75150;54.494;18.518;2024-03-08T08:13:55;5.67;4.00;3.00
84887;PMS7003;75150;54.494;18.518;2024-03-08T08:15:57;4.00;4.00;3.00
84887;PMS7003;75150;54.494;18.518;2024-03-08T08:17:59;4.33;2.00;2.00
84887;PMS7003;75150;54.494;18.518;2024-03-08T08:20:01;2.33;2.33;2.00
84887;PMS7003;75150;54.494;18.518;2024-03-08T08:22:02;3.00;2.00;2.00
84887;PMS7003;75150;54.494;18.518;2024-03-08T08:24:05;4.00;2.00;2.00
84887;PMS7003;75150;54.494;18.518;2024-03-08T08:26:07;4.00;2.33;2.00
84887;PMS7003;75150;54.494;18.518;2024-03-08T08:28:08;4.00;3.00;3.00
84887;PMS7003;75150;54.494;18.518;2024-03-08T08:30:10;3.00;2.00;2.00
84887;PMS7003;75150;54.494;18.518;2024-03-08T08:32:12;2.25;2.25;2.00
84887;PMS7003;75150;54.494;18.518;2024-03-08T08:34:15;2.00;2.00;2.00
84887;PMS7003;75150;54.494;18.518;2024-03-08T08:36:16;5.00;4.00;3.25
84887;PMS7003;75150;54.494;18.518;2024-03-08T08:38:17;2.75;2.75;2.75
84887;PMS7003;75150;54.494;18.518;2024-03-08T08:40:19;5.00;4.00;4.00
84887;PMS7003;75150;54.494;18.518;2024-03-08T08:42:20;4.25;3.25;3.00
84887;PMS7003;75150;54.494;18.518;2024-03-08T08:44:21;4.50;4.25;3.50
84887;PMS7003;75150;54.494;18.518;2024-03-08T08:46:23;4.00;4.00;4.00
84887;PMS7003;75150;54.494;18.518;2024-03-08T08:48:24;8.00;6.00;4.25
84887;PMS7003;75150;54.494;18.518;2024-03-08T08:50:27;3.25;3.25;3.00
84887;PMS7003;75150;54.494;18.518;2024-03-08T08:52:28;4.50;4.50;4.00
84887;PMS7003;75150;54.494;18.518;2024-03-08T08:54:29;4.50;4.50;3.75
84887;PMS7003;75150;54.494;18.518;2024-03-08T08:56:31;5.25;5.00;4.00
84887;PMS7003;75150;54.494;18.518;2024-03-08T08:58:32;4.75;4.75;4.50
84887;PMS7003;75150;54.494;18.518;2024-03-08T09:00:33;6.75;5.75;4.00
84887;PMS7003;75150;54.494;18.518;2024-03-08T09:02:35;4.00;4.00;3.50
84887;PMS7003;75150;54.494;18.518;2024-03-08T09:04:36;7.25;5.50;4.00
84887;PMS7003;75150;54.494;18.518;2024-03-08T09:06:39;6.00;6.00;5.00
84887;PMS7003;75150;54.494;18.518;2024-03-08T09:08:40;4.25;2.50;2.00
84887;PMS7003;75150;54.494;18.518;2024-03-08T09:10:41;6.75;6.75;5.00
84887;PMS7003;75150;54.494;18.518;2024-03-08T09:12:43;13.75;12.00;9.00
84887;PMS7003;75150;54.494;18.518;2024-03-08T09:14:44;5.00;5.00;4.00
84887;PMS7003;75150;54.494;18.518;2024-03-08T09:16:45;6.50;5.50;5.00
84887;PMS7003;75150;54.494;18.518;2024-03-08T09:18:47;4.75;4.75;4.00
84887;PMS7003;75150;54.494;18.518;2024-03-08T09:20:48;4.00;4.00;3.25
84887;PMS7003;75150;54.494;18.518;2024-03-08T09:22:51;4.75;3.75;3.00
84887;PMS7003;75150;54.494;18.518;2024-03-08T09:24:52;6.00;4.00;4.00
84887;PMS7003;75150;54.494;18.518;2024-03-08T09:26:54;5.00;5.00;4.00
84887;PMS7003;75150;54.494;18.518;2024-03-08T09:28:55;5.75;4.00;4.00
84887;PMS7003;75150;54.494;18.518;2024-03-08T09:30:56;4.00;4.00;4.00
84887;PMS7003;75150;54.494;18.518;2024-03-08T09:32:58;17.50;16.50;13.25
84887;PMS7003;75150;54.494;18.518;2024-03-08T09:34:59;4.00;4.00;4.00
84887;PMS7003;75150;54.494;18.518;2024-03-08T09:37:01;5.00;5.00;4.00
84887;PMS7003;75150;54.494;18.518;2024-03-08T09:39:03;6.75;6.75;5.00
84887;PMS7003;75150;54.494;18.518;2024-03-08T09:41:05;4.25;4.00;3.00
84887;PMS7003;75150;54.494;18.518;2024-03-08T09:43:06;4.50;4.25;3.00
84887;PMS7003;75150;54.494;18.518;2024-03-08T09:45:08;7.00;7.00;6.00
84887;PMS7003;75150;54.494;18.518;2024-03-08T09:47:11;7.50;7.50;7.00
84887;PMS7003;75150;54.494;18.518;2024-03-08T09:49:14;13.75;12.00;9.25
84887;PMS7003;75150;54.494;18.518;2024-03-08T09:51:16;8.25;7.25;6.00
84887;PMS7003;75150;54.494;18.518;2024-03-08T09:53:17;14.67;11.33;8.67
84887;PMS7003;75150;54.494;18.518;2024-03-08T09:55:20;18.00;13.33;10.67
84887;PMS7003;75150;54.494;18.518;2024-03-08T09:57:22;20.00;16.33;11.00
84887;PMS7003;75150;54.494;18.518;2024-03-08T09:59:25;15.00;13.00;11.00
84887;PMS7003;75150;54.494;18.518;2024-03-08T10:01:27;10.00;10.00;8.67
84887;PMS7003;75150;54.494;18.518;2024-03-08T10:03:28;10.67;10.67;9.33
84887;PMS7003;75150;54.494;18.518;2024-03-08T10:05:30;15.67;14.67;11.00
84887;PMS7003;75150;54.494;18.518;2024-03-08T10:07:31;20.00;15.00;11.00
84887;PMS7003;75150;54.494;18.518;2024-03-08T10:09:33;16.00;16.00;11.00
84887;PMS7003;75150;54.494;18.518;2024-03-08T10:11:35;12.67;11.67;9.33
84887;PMS7003;75150;54.494;18.518;2024-03-08T10:13:37;12.67;12.67;9.00
84887;PMS7003;75150;54.494;18.518;2024-03-08T10:15:38;14.00;14.00;9.00
84887;PMS7003;75150;54.494;18.518;2024-03-08T10:17:40;10.00;10.00;9.00
84887;PMS7003;75150;54.494;18.518;2024-03-08T10:19:49;14.67;12.00;9.00
84887;PMS7003;75150;54.494;18.518;2024-03-08T10:21:51;16.67;15.67;11.00
84887;PMS7003;75150;54.494;18.518;2024-03-08T10:23:53;12.33;12.33;10.00
84887;PMS7003;75150;54.494;18.518;2024-03-08T10:25:54;11.00;10.33;8.67
84887;PMS7003;75150;54.494;18.518;2024-03-08T10:27:57;12.33;10.00;8.67
84887;PMS7003;75150;54.494;18.518;2024-03-08T10:29:58;11.33;11.33;9.00
84887;PMS7003;75150;54.494;18.518;2024-03-08T10:31:59;10.67;9.33;7.00
84887;PMS7003;75150;54.494;18.518;2024-03-08T10:34:02;8.33;8.33;7.00
84887;PMS7003;75150;54.494;18.518;2024-03-08T10:36:04;9.67;8.67;5.67
84887;PMS7003;75150;54.494;18.518;2024-03-08T10:38:08;13.67;13.67;10.00
84887;PMS7003;75150;54.494;18.518;2024-03-08T10:40:17;9.33;9.33;8.00
84887;PMS7003;75150;54.494;18.518;2024-03-08T10:42:19;11.67;10.67;8.67
84887;PMS7003;75150;54.494;18.518;2024-03-08T10:44:36;9.67;9.00;7.00
84887;PMS7003;75150;54.494;18.518;2024-03-08T10:46:49;11.33;8.67;7.67
84887;PMS7003;75150;54.494;18.518;2024-03-08T10:49:00;8.00;8.00;7.00
84887;PMS7003;75150;54.494;18.518;2024-03-08T10:51:07;11.33;8.00;5.33
84887;PMS7003;75150;54.494;18.518;2024-03-08T10:53:08;16.00;13.67;9.67
84887;PMS7003;75150;54.494;18.518;2024-03-08T10:55:12;9.00;8.00;7.00
84887;PMS7003;75150;54.494;18.518;2024-03-08T10:57:17;11.00;8.00;7.00
84887;PMS7003;75150;54.494;18.518;2024-03-08T10:59:19;10.00;10.00;8.00
84887;PMS7003;75150;54.494;18.518;2024-03-08T11:01:23;11.33;9.00;7.67
84887;PMS7003;75150;54.494;18.518;2024-03-08T11:03:43;9.00;8.00;7.00
84887;PMS7003;75150;54.494;18.518;2024-03-08T11:05:45;13.00;10.33;8.67
84887;PMS7003;75150;54.494;18.518;2024-03-08T11:07:47;11.00;11.00;8.33
84887;PMS7003;75150;54.494;18.518;2024-03-08T11:09:48;10.00;10.00;8.33
84887;PMS7003;75150;54.494;18.518;2024-03-08T11:11:49;9.00;9.00;7.00
84887;PMS7003;75150;54.494;18.518;2024-03-08T11:13:51;8.00;8.00;5.00
84887;PMS7003;75150;54.494;18.518;2024-03-08T11:15:52;12.67;12.67;9.67
84887;PMS7003;75150;54.494;18.518;2024-03-08T11:17:57;14.67;11.33;8.00
84887;PMS7003;75150;54.494;18.518;2024-03-08T11:20:01;14.67;14.67;11.00
84887;PMS7003;75150;54.494;18.518;2024-03-08T11:22:02;14.67;12.33;9.00
84887;PMS7003;75150;54.494;18.518;2024-03-08T11:24:06;14.00;13.67;10.33
84887;PMS7003;75150;54.494;18.518;2024-03-08T11:26:17;14.00;14.00;10.67
84887;PMS7003;75150;54.494;18.518;2024-03-08T11:28:20;13.33;12.00;9.33
84887;PMS7003;75150;54.494;18.518;2024-03-08T11:30:22;25.67;20.67;14.00